Birmingham, AL

7:24 PM CST on December 26, 2014 (GMT -0600)
Hoover Country Club | Change Station
CLOSE
Current Station
Personal Weather Station
Location: Hoover, AL
Elevation: 502 ft
Nearby Weather Stations

Elev 502 ft 33.40 °N, 86.82 °W | Updated 9 seconds ago

Partly Cloudy
Partly Cloudy
45.8 °F
Feels Like 46 °F
N
0.0
Wind Variable Wind from North
Gusts 0.0 mph

Today
High -- | Low -- °F
--% Chance of Precip.
Yesterday
High -- | Low -- °F
Precip. -- in
6:49 AM 4:46 PM
Waxing Crescent, 31% visible
Pressure 30.30 in
Visibility 10.0 miles
Clouds Scattered Clouds 15000 ft
Windchill 46 °F
Dew Point 42 °F
Humidity 88%
Rainfall 0.00 in
Snow Depth Not available.
UV 0 out of 12
Pollen 2.00 out of 12
Air Quality Not available.
Flu Activity Not available.
METAR KBHM 270053Z 00000KT 10SM SCT150 08/04 A3030 RMK AO2 SLP261 T00830039

More Conditions Fewer Conditions

Pressure 30.30 in
Visibility 10.0 miles
Clouds Scattered Clouds 15000 ft
Windchill 46 °F
Dew Point 42 °F
Humidity 88%
Rainfall 0.00 in
Snow Depth Not available.
UV 0 out of 12
Pollen 2.00 out of 12
Air Quality Not available.
Flu Activity Not available.
METAR KBHM 270053Z 00000KT 10SM SCT150 08/04 A3030 RMK AO2 SLP261 T00830039

More Conditions Fewer Conditions

10-Day Weather Forecast

Almanac

Astronomy

Dec. 26, 2014 Rise Set
Actual Time
Civil Twilight
Nautical Twilight
Astronomical Twilight
Moon
Length of Visible Light
Length of Day
Tomorrow will be .
, % of the Moon is Illuminated

Today's Extremes

State Highs State Lows

Community

WunderPhotos

Upload Photos

1,780,804 photos uploaded!

WunderBlogs® & News

Nearby

Air Quality

  Air Quality AQ Index Pollutant
Not available.

Snow Depth

Station Depth Elevation

Earthquake Activity

City Distance Mag. Time & Date
Minimum magnitude displayed is 2.5.

Coastal Water Temperatures

Place Temperature

Nearby Weather Stations